sensor_id;sensor_type;location;lat;lon;timestamp;pressure;altitude;pressure_sealevel;temperature;humidity
20612;BME280;10465;42.686;23.364;2023-04-01T00:00:55;94124.66;;;13.38;55.89
20612;BME280;10465;42.686;23.364;2023-04-01T00:03:22;94125.88;;;13.28;56.58
20612;BME280;10465;42.686;23.364;2023-04-01T00:05:48;94133.09;;;13.28;56.66
20612;BME280;10465;42.686;23.364;2023-04-01T00:08:14;94123.94;;;13.25;56.87
20612;BME280;10465;42.686;23.364;2023-04-01T00:10:40;94083.53;;;12.79;57.66
20612;BME280;10465;42.686;23.364;2023-04-01T00:13:06;94093.72;;;12.90;57.73
20612;BME280;10465;42.686;23.364;2023-04-01T00:15:32;94126.94;;;13.11;57.76
20612;BME280;10465;42.686;23.364;2023-04-01T00:17:58;94136.47;;;13.13;57.34
20612;BME280;10465;42.686;23.364;2023-04-01T00:20:24;94124.00;;;13.01;57.94
20612;BME280;10465;42.686;23.364;2023-04-01T00:22:49;94132.19;;;12.96;59.08
20612;BME280;10465;42.686;23.364;2023-04-01T00:25:16;94120.94;;;12.86;59.83
20612;BME280;10465;42.686;23.364;2023-04-01T00:27:41;94133.66;;;12.93;58.93
20612;BME280;10465;42.686;23.364;2023-04-01T00:30:07;94116.88;;;12.77;58.95
20612;BME280;10465;42.686;23.364;2023-04-01T00:32:34;94125.28;;;12.67;59.30
20612;BME280;10465;42.686;23.364;2023-04-01T00:34:59;94105.22;;;12.41;59.82
20612;BME280;10465;42.686;23.364;2023-04-01T00:37:26;94124.66;;;12.57;60.04
20612;BME280;10465;42.686;23.364;2023-04-01T00:39:52;94123.78;;;12.53;60.08
20612;BME280;10465;42.686;23.364;2023-04-01T00:42:17;94116.25;;;12.55;59.54
20612;BME280;10465;42.686;23.364;2023-04-01T00:44:45;94106.44;;;11.95;61.37
20612;BME280;10465;42.686;23.364;2023-04-01T00:47:11;94071.06;;;11.78;61.57
20612;BME280;10465;42.686;23.364;2023-04-01T00:49:39;94088.41;;;11.63;63.54
20612;BME280;10465;42.686;23.364;2023-04-01T00:52:08;94084.53;;;11.61;64.12
20612;BME280;10465;42.686;23.364;2023-04-01T00:54:38;94044.88;;;11.77;63.48
20612;BME280;10465;42.686;23.364;2023-04-01T00:57:16;94083.25;;;12.16;62.45
20612;BME280;10465;42.686;23.364;2023-04-01T00:59:49;94077.72;;;12.21;62.24
20612;BME280;10465;42.686;23.364;2023-04-01T01:02:18;94049.53;;;12.17;61.86
20612;BME280;10465;42.686;23.364;2023-04-01T01:04:43;94073.16;;;12.34;61.57
20612;BME280;10465;42.686;23.364;2023-04-01T01:09:50;94061.81;;;11.84;64.19
20612;BME280;10465;42.686;23.364;2023-04-01T01:12:41;94062.09;;;11.58;66.16
20612;BME280;10465;42.686;23.364;2023-04-01T01:21:10;94053.59;;;11.65;65.43
20612;BME280;10465;42.686;23.364;2023-04-01T01:37:42;94002.22;;;11.82;62.75
20612;BME280;10465;42.686;23.364;2023-04-01T01:40:10;94029.34;;;12.00;61.77
20612;BME280;10465;42.686;23.364;2023-04-01T01:42:39;94012.31;;;12.01;61.82
20612;BME280;10465;42.686;23.364;2023-04-01T01:45:07;93990.09;;;11.93;61.26
20612;BME280;10465;42.686;23.364;2023-04-01T01:47:35;94012.47;;;12.32;60.26
20612;BME280;10465;42.686;23.364;2023-04-01T01:50:02;94026.50;;;12.33;59.34
20612;BME280;10465;42.686;23.364;2023-04-01T01:52:28;94010.59;;;12.33;58.80
20612;BME280;10465;42.686;23.364;2023-04-01T01:54:56;94025.41;;;12.62;58.52
20612;BME280;10465;42.686;23.364;2023-04-01T01:57:36;94004.19;;;12.62;58.32
20612;BME280;10465;42.686;23.364;2023-04-01T02:00:07;94019.44;;;12.93;57.80
20612;BME280;10465;42.686;23.364;2023-04-01T02:02:40;94001.94;;;12.92;56.36
20612;BME280;10465;42.686;23.364;2023-04-01T02:05:09;93971.16;;;12.75;56.42
20612;BME280;10465;42.686;23.364;2023-04-01T02:07:37;93998.28;;;12.97;56.29
20612;BME280;10465;42.686;23.364;2023-04-01T02:10:05;93979.44;;;13.02;56.42
20612;BME280;10465;42.686;23.364;2023-04-01T02:12:33;93996.38;;;13.25;56.11
20612;BME280;10465;42.686;23.364;2023-04-01T02:15:08;93996.53;;;13.32;57.73
20612;BME280;10465;42.686;23.364;2023-04-01T02:17:39;93965.03;;;13.03;58.28
20612;BME280;10465;42.686;23.364;2023-04-01T02:20:15;93991.69;;;13.22;57.54
20612;BME280;10465;42.686;23.364;2023-04-01T02:22:48;93976.78;;;13.02;56.47
20612;BME280;10465;42.686;23.364;2023-04-01T02:25:18;93971.03;;;13.16;55.49
20612;BME280;10465;42.686;23.364;2023-04-01T02:27:45;93966.84;;;13.15;54.25
20612;BME280;10465;42.686;23.364;2023-04-01T02:30:12;93928.50;;;13.00;55.23
20612;BME280;10465;42.686;23.364;2023-04-01T02:32:39;93930.59;;;13.06;55.93
20612;BME280;10465;42.686;23.364;2023-04-01T02:35:10;93993.44;;;13.46;55.58
20612;BME280;10465;42.686;23.364;2023-04-01T02:37:38;94000.03;;;13.52;54.81
20612;BME280;10465;42.686;23.364;2023-04-01T02:40:08;93980.84;;;13.59;55.25
20612;BME280;10465;42.686;23.364;2023-04-01T02:42:34;93987.59;;;13.56;55.31
20612;BME280;10465;42.686;23.364;2023-04-01T02:44:59;93996.53;;;13.64;55.81
20612;BME280;10465;42.686;23.364;2023-04-01T02:47:25;93999.09;;;13.60;56.18
20612;BME280;10465;42.686;23.364;2023-04-01T02:49:50;94003.41;;;13.49;56.60
20612;BME280;10465;42.686;23.364;2023-04-01T02:52:16;94009.06;;;13.48;57.12
20612;BME280;10465;42.686;23.364;2023-04-01T02:54:42;93988.91;;;13.31;58.32
20612;BME280;10465;42.686;23.364;2023-04-01T02:57:07;94010.06;;;13.27;59.02
20612;BME280;10465;42.686;23.364;2023-04-01T02:59:33;94021.06;;;13.26;58.72
20612;BME280;10465;42.686;23.364;2023-04-01T03:01:58;94019.56;;;13.13;59.29
20612;BME280;10465;42.686;23.364;2023-04-01T03:04:23;94020.06;;;13.18;58.90
20612;BME280;10465;42.686;23.364;2023-04-01T03:06:49;94024.88;;;13.13;59.19
20612;BME280;10465;42.686;23.364;2023-04-01T03:09:15;93969.81;;;12.81;58.79
20612;BME280;10465;42.686;23.364;2023-04-01T03:11:41;93998.78;;;13.02;57.86
20612;BME280;10465;42.686;23.364;2023-04-01T03:14:06;94021.50;;;13.00;58.63
20612;BME280;10465;42.686;23.364;2023-04-01T03:16:32;94022.03;;;13.05;58.26
20612;BME280;10465;42.686;23.364;2023-04-01T03:18:58;94013.28;;;13.05;57.81
20612;BME280;10465;42.686;23.364;2023-04-01T03:21:25;94013.28;;;13.05;57.76
20612;BME280;10465;42.686;23.364;2023-04-01T03:23:51;94019.88;;;13.11;57.70
20612;BME280;10465;42.686;23.364;2023-04-01T03:26:17;93977.69;;;12.94;57.20
20612;BME280;10465;42.686;23.364;2023-04-01T03:28:43;94025.88;;;13.08;57.82
20612;BME280;10465;42.686;23.364;2023-04-01T03:31:10;94044.72;;;13.03;58.04
20612;BME280;10465;42.686;23.364;2023-04-01T03:33:35;94049.69;;;13.04;58.07
20612;BME280;10465;42.686;23.364;2023-04-01T03:36:01;94053.03;;;13.01;58.16
20612;BME280;10465;42.686;23.364;2023-04-01T03:38:26;94038.13;;;12.97;58.43
20612;BME280;10465;42.686;23.364;2023-04-01T03:40:51;94019.81;;;12.79;59.19
20612;BME280;10465;42.686;23.364;2023-04-01T03:43:17;93988.78;;;12.68;59.85
20612;BME280;10465;42.686;23.364;2023-04-01T03:45:47;94023.13;;;12.89;61.15
20612;BME280;10465;42.686;23.364;2023-04-01T03:48:17;93998.06;;;12.74;61.55
20612;BME280;10465;42.686;23.364;2023-04-01T03:50:43;94007.44;;;12.71;62.42
20612;BME280;10465;42.686;23.364;2023-04-01T03:53:09;93989.63;;;12.72;62.19
20612;BME280;10465;42.686;23.364;2023-04-01T03:55:39;93977.28;;;12.63;62.33
20612;BME280;10465;42.686;23.364;2023-04-01T03:58:06;93971.59;;;12.49;62.30
20612;BME280;10465;42.686;23.364;2023-04-01T04:00:31;93941.19;;;12.47;62.59
20612;BME280;10465;42.686;23.364;2023-04-01T04:02:59;93875.00;;;12.10;62.11
20612;BME280;10465;42.686;23.364;2023-04-01T04:05:26;93893.09;;;12.20;61.77
20612;BME280;10465;42.686;23.364;2023-04-01T04:07:52;93917.09;;;12.40;62.61
20612;BME280;10465;42.686;23.364;2023-04-01T04:10:18;93920.78;;;12.35;62.17
20612;BME280;10465;42.686;23.364;2023-04-01T04:12:44;93923.63;;;12.42;61.93
20612;BME280;10465;42.686;23.364;2023-04-01T04:15:10;93912.25;;;12.42;62.12
20612;BME280;10465;42.686;23.364;2023-04-01T04:17:36;93907.47;;;12.47;62.17
20612;BME280;10465;42.686;23.364;2023-04-01T04:20:02;93878.47;;;12.26;61.82
20612;BME280;10465;42.686;23.364;2023-04-01T04:22:27;93905.91;;;12.46;61.60
20612;BME280;10465;42.686;23.364;2023-04-01T04:24:54;93898.31;;;12.45;60.64
20612;BME280;10465;42.686;23.364;2023-04-01T04:27:20;93905.16;;;12.46;61.05
20612;BME280;10465;42.686;23.364;2023-04-01T04:29:45;93890.44;;;12.48;61.73
20612;BME280;10465;42.686;23.364;2023-04-01T04:32:11;93894.63;;;12.49;62.18
20612;BME280;10465;42.686;23.364;2023-04-01T04:34:37;93881.53;;;12.41;62.73
20612;BME280;10465;42.686;23.364;2023-04-01T04:37:03;93847.38;;;12.11;62.71
20612;BME280;10465;42.686;23.364;2023-04-01T04:39:29;93879.59;;;12.25;62.85
20612;BME280;10465;42.686;23.364;2023-04-01T04:41:54;93858.78;;;12.11;62.51
20612;BME280;10465;42.686;23.364;2023-04-01T04:44:20;93846.34;;;12.00;62.31
20612;BME280;10465;42.686;23.364;2023-04-01T04:46:46;93875.22;;;12.17;62.28
20612;BME280;10465;42.686;23.364;2023-04-01T04:49:12;93853.88;;;12.13;62.00
20612;BME280;10465;42.686;23.364;2023-04-01T04:51:37;93860.34;;;12.28;61.46
20612;BME280;10465;42.686;23.364;2023-04-01T04:54:03;93850.00;;;12.39;61.34
20612;BME280;10465;42.686;23.364;2023-04-01T04:56:29;93841.53;;;12.33;60.55
20612;BME280;10465;42.686;23.364;2023-04-01T04:58:56;93851.50;;;12.52;60.41
20612;BME280;10465;42.686;23.364;2023-04-01T05:01:22;93843.84;;;12.51;60.57
20612;BME280;10465;42.686;23.364;2023-04-01T05:03:47;93853.03;;;12.69;59.95
20612;BME280;10465;42.686;23.364;2023-04-01T05:06:14;93858.19;;;12.78;59.39
20612;BME280;10465;42.686;23.364;2023-04-01T05:08:41;93847.91;;;12.76;59.33
20612;BME280;10465;42.686;23.364;2023-04-01T05:11:14;93846.03;;;12.77;59.20
20612;BME280;10465;42.686;23.364;2023-04-01T05:13:40;93818.00;;;12.63;59.01
20612;BME280;10465;42.686;23.364;2023-04-01T05:16:11;93841.38;;;12.90;58.40
20612;BME280;10465;42.686;23.364;2023-04-01T05:18:36;93842.50;;;12.89;58.12
20612;BME280;10465;42.686;23.364;2023-04-01T05:21:02;93830.84;;;12.77;58.39
20612;BME280;10465;42.686;23.364;2023-04-01T05:23:27;93805.06;;;12.46;57.84
20612;BME280;10465;42.686;23.364;2023-04-01T05:25:53;93813.31;;;12.57;57.78
20612;BME280;10465;42.686;23.364;2023-04-01T05:28:19;93812.19;;;12.58;57.51
20612;BME280;10465;42.686;23.364;2023-04-01T05:30:45;93795.97;;;12.47;57.62
20612;BME280;10465;42.686;23.364;2023-04-01T05:33:12;93807.31;;;12.44;57.84
20612;BME280;10465;42.686;23.364;2023-04-01T05:35:38;93818.59;;;12.57;58.34
20612;BME280;10465;42.686;23.364;2023-04-01T05:38:04;93818.16;;;12.71;57.96
20612;BME280;10465;42.686;23.364;2023-04-01T05:40:30;93819.03;;;12.75;57.63
20612;BME280;10465;42.686;23.364;2023-04-01T05:42:56;93805.50;;;12.64;57.78
20612;BME280;10465;42.686;23.364;2023-04-01T05:45:22;93802.06;;;12.63;58.08
20612;BME280;10465;42.686;23.364;2023-04-01T05:47:48;93828.59;;;12.95;57.61
20612;BME280;10465;42.686;23.364;2023-04-01T05:50:13;93811.31;;;13.01;56.89
20612;BME280;10465;42.686;23.364;2023-04-01T05:52:39;93827.91;;;12.98;56.71
20612;BME280;10465;42.686;23.364;2023-04-01T05:55:05;93800.16;;;12.96;57.44
20612;BME280;10465;42.686;23.364;2023-04-01T05:57:31;93787.41;;;12.85;56.47
20612;BME280;10465;42.686;23.364;2023-04-01T05:59:57;93804.97;;;12.90;56.63
20612;BME280;10465;42.686;23.364;2023-04-01T06:02:22;93768.75;;;12.66;56.92
20612;BME280;10465;42.686;23.364;2023-04-01T06:04:48;93792.81;;;12.89;56.78
20612;BME280;10465;42.686;23.364;2023-04-01T06:07:16;93804.91;;;13.22;56.25
20612;BME280;10465;42.686;23.364;2023-04-01T06:09:44;93791.69;;;13.41;55.45
20612;BME280;10465;42.686;23.364;2023-04-01T06:23:58;93802.84;;;13.85;55.00
20612;BME280;10465;42.686;23.364;2023-04-01T06:26:34;93801.28;;;14.04;54.72
20612;BME280;10465;42.686;23.364;2023-04-01T06:29:40;93793.72;;;14.06;54.90
20612;BME280;10465;42.686;23.364;2023-04-01T06:32:24;93792.66;;;14.10;55.08
20612;BME280;10465;42.686;23.364;2023-04-01T06:43:35;93786.19;;;14.31;55.22
20612;BME280;10465;42.686;23.364;2023-04-01T06:51:33;93767.38;;;14.43;54.97
20612;BME280;10465;42.686;23.364;2023-04-01T06:56:29;93727.91;;;14.26;56.40
20612;BME280;10465;42.686;23.364;2023-04-01T06:58:58;93742.28;;;14.44;56.27
20612;BME280;10465;42.686;23.364;2023-04-01T07:04:21;93745.16;;;14.55;55.85
20612;BME280;10465;42.686;23.364;2023-04-01T07:06:54;93724.72;;;14.40;55.99
20612;BME280;10465;42.686;23.364;2023-04-01T07:09:54;93750.94;;;14.61;55.93
20612;BME280;10465;42.686;23.364;2023-04-01T07:12:40;93741.53;;;14.67;55.81
20612;BME280;10465;42.686;23.364;2023-04-01T07:15:24;93733.94;;;14.69;56.33
20612;BME280;10465;42.686;23.364;2023-04-01T07:18:41;93726.56;;;14.85;55.55
20612;BME280;10465;42.686;23.364;2023-04-01T07:21:04;93717.44;;;14.86;55.74
20612;BME280;10465;42.686;23.364;2023-04-01T07:23:39;93716.91;;;15.00;55.80
20612;BME280;10465;42.686;23.364;2023-04-01T07:26:33;93730.50;;;14.95;55.81
20612;BME280;10465;42.686;23.364;2023-04-01T07:28:59;93750.41;;;15.01;55.79
20612;BME280;10465;42.686;23.364;2023-04-01T07:36:42;93738.94;;;15.27;55.86
20612;BME280;10465;42.686;23.364;2023-04-01T07:45:05;93736.47;;;15.41;55.32
20612;BME280;10465;42.686;23.364;2023-04-01T07:48:06;93727.00;;;15.47;55.11
20612;BME280;10465;42.686;23.364;2023-04-01T07:55:58;93715.53;;;15.43;54.18
20612;BME280;10465;42.686;23.364;2023-04-01T07:58:58;93725.41;;;15.69;52.88
20612;BME280;10465;42.686;23.364;2023-04-01T08:01:41;93718.88;;;15.67;52.71
20612;BME280;10465;42.686;23.364;2023-04-01T08:07:17;93683.25;;;15.52;52.71
20612;BME280;10465;42.686;23.364;2023-04-01T08:09:53;93708.63;;;15.69;52.28
20612;BME280;10465;42.686;23.364;2023-04-01T08:12:32;93712.59;;;15.86;51.22
20612;BME280;10465;42.686;23.364;2023-04-01T08:22:45;93651.66;;;15.91;51.41
20612;BME280;10465;42.686;23.364;2023-04-01T08:25:19;93673.16;;;16.05;51.68
20612;BME280;10465;42.686;23.364;2023-04-01T08:27:52;93685.47;;;16.17;51.93
20612;BME280;10465;42.686;23.364;2023-04-01T08:30:22;93683.28;;;16.30;51.60
20612;BME280;10465;42.686;23.364;2023-04-01T08:32:54;93675.78;;;16.46;50.68
20612;BME280;10465;42.686;23.364;2023-04-01T08:35:37;93652.03;;;16.34;51.03
20612;BME280;10465;42.686;23.364;2023-04-01T08:38:11;93641.78;;;16.43;50.48
20612;BME280;10465;42.686;23.364;2023-04-01T08:44:13;93619.22;;;16.34;50.42
20612;BME280;10465;42.686;23.364;2023-04-01T08:46:29;93618.16;;;16.45;49.90
20612;BME280;10465;42.686;23.364;2023-04-01T08:49:09;93609.41;;;16.52;49.56
20612;BME280;10465;42.686;23.364;2023-04-01T08:57:04;93584.91;;;16.39;49.13
20612;BME280;10465;42.686;23.364;2023-04-01T09:07:53;93616.53;;;16.96;45.40
20612;BME280;10465;42.686;23.364;2023-04-01T09:21:37;93604.75;;;17.08;41.56
20612;BME280;10465;42.686;23.364;2023-04-01T09:29:23;93602.56;;;17.35;40.95
20612;BME280;10465;42.686;23.364;2023-04-01T09:57:37;93541.84;;;17.64;42.64
20612;BME280;10465;42.686;23.364;2023-04-01T10:00:15;93535.75;;;17.70;43.44
20612;BME280;10465;42.686;23.364;2023-04-01T10:16:30;93523.47;;;17.34;44.97
20612;BME280;10465;42.686;23.364;2023-04-01T10:30:31;93510.81;;;17.02;45.09
20612;BME280;10465;42.686;23.364;2023-04-01T10:57:14;93480.97;;;16.93;45.82
20612;BME280;10465;42.686;23.364;2023-04-01T11:13:47;93457.75;;;17.36;46.13
20612;BME280;10465;42.686;23.364;2023-04-01T11:17:02;93455.84;;;17.40;46.08
20612;BME280;10465;42.686;23.364;2023-04-01T11:32:46;93472.53;;;16.73;45.70
20612;BME280;10465;42.686;23.364;2023-04-01T12:00:19;93715.88;;;14.55;73.31
20612;BME280;10465;42.686;23.364;2023-04-01T12:11:19;93694.84;;;14.27;76.52
20612;BME280;10465;42.686;23.364;2023-04-01T12:19:44;93692.78;;;14.40;77.98
20612;BME280;10465;42.686;23.364;2023-04-01T12:28:00;93704.28;;;14.70;81.04
20612;BME280;10465;42.686;23.364;2023-04-01T12:30:37;93704.13;;;14.59;80.12
20612;BME280;10465;42.686;23.364;2023-04-01T12:33:54;93719.03;;;14.41;79.71
20612;BME280;10465;42.686;23.364;2023-04-01T12:42:39;93709.72;;;13.63;83.75
20612;BME280;10465;42.686;23.364;2023-04-01T12:45:32;93716.47;;;13.60;83.40
20612;BME280;10465;42.686;23.364;2023-04-01T12:48:25;93712.66;;;13.57;83.04
20612;BME280;10465;42.686;23.364;2023-04-01T12:51:12;93698.63;;;13.60;83.94
20612;BME280;10465;42.686;23.364;2023-04-01T13:02:11;93690.72;;;13.64;84.25
20612;BME280;10465;42.686;23.364;2023-04-01T13:26:56;93633.97;;;14.25;85.06
20612;BME280;10465;42.686;23.364;2023-04-01T13:35:16;93610.22;;;15.26;81.44
20612;BME280;10465;42.686;23.364;2023-04-01T13:38:08;93596.06;;;15.59;78.12
20612;BME280;10465;42.686;23.364;2023-04-01T13:40:49;93589.69;;;16.12;72.79
20612;BME280;10465;42.686;23.364;2023-04-01T13:51:20;93572.78;;;16.49;71.35
20612;BME280;10465;42.686;23.364;2023-04-01T13:57:00;93577.28;;;16.38;71.89
20612;BME280;10465;42.686;23.364;2023-04-01T14:02:44;93584.38;;;16.74;70.27
20612;BME280;10465;42.686;23.364;2023-04-01T14:08:06;93554.41;;;17.31;67.21
20612;BME280;10465;42.686;23.364;2023-04-01T14:10:43;93542.19;;;17.34;66.51
20612;BME280;10465;42.686;23.364;2023-04-01T14:22:13;93528.53;;;17.74;60.13
20612;BME280;10465;42.686;23.364;2023-04-01T14:27:53;93506.22;;;17.02;64.19
20612;BME280;10465;42.686;23.364;2023-04-01T14:33:26;93499.78;;;17.28;62.83
20612;BME280;10465;42.686;23.364;2023-04-01T14:38:59;93500.88;;;17.02;62.04
20612;BME280;10465;42.686;23.364;2023-04-01T14:41:48;93512.41;;;17.35;61.94
20612;BME280;10465;42.686;23.364;2023-04-01T14:50:07;93496.00;;;17.97;58.05
20612;BME280;10465;42.686;23.364;2023-04-01T14:52:38;93497.50;;;17.98;59.26
20612;BME280;10465;42.686;23.364;2023-04-01T14:55:36;93510.13;;;18.12;59.58
20612;BME280;10465;42.686;23.364;2023-04-01T14:58:12;93477.66;;;17.92;58.72
20612;BME280;10465;42.686;23.364;2023-04-01T15:01:08;93473.44;;;17.59;59.05
20612;BME280;10465;42.686;23.364;2023-04-01T15:06:38;93481.44;;;17.70;58.98
20612;BME280;10465;42.686;23.364;2023-04-01T15:09:36;93529.25;;;17.64;59.14
20612;BME280;10465;42.686;23.364;2023-04-01T15:22:29;93533.63;;;16.09;64.57
20612;BME280;10465;42.686;23.364;2023-04-01T15:30:34;93526.88;;;15.74;64.61
20612;BME280;10465;42.686;23.364;2023-04-01T15:33:17;93530.25;;;15.67;65.57
20612;BME280;10465;42.686;23.364;2023-04-01T15:35:57;93524.94;;;15.71;65.92
20612;BME280;10465;42.686;23.364;2023-04-01T15:38:48;93527.19;;;15.65;65.24
20612;BME280;10465;42.686;23.364;2023-04-01T15:47:33;93535.03;;;15.51;66.88
20612;BME280;10465;42.686;23.364;2023-04-01T15:50:23;93540.03;;;15.52;66.96
20612;BME280;10465;42.686;23.364;2023-04-01T16:04:43;93781.53;;;13.11;69.28
20612;BME280;10465;42.686;23.364;2023-04-01T16:07:37;93774.81;;;12.98;72.33
20612;BME280;10465;42.686;23.364;2023-04-01T16:10:25;93757.16;;;12.90;73.53
20612;BME280;10465;42.686;23.364;2023-04-01T16:24:30;93781.94;;;11.59;83.17
20612;BME280;10465;42.686;23.364;2023-04-01T16:30:00;93804.81;;;11.92;81.93
20612;BME280;10465;42.686;23.364;2023-04-01T16:32:37;93802.00;;;12.00;80.77
20612;BME280;10465;42.686;23.364;2023-04-01T16:37:55;93809.63;;;12.02;78.91
20612;BME280;10465;42.686;23.364;2023-04-01T16:40:40;93823.47;;;11.95;78.54
20612;BME280;10465;42.686;23.364;2023-04-01T16:43:21;93814.06;;;11.98;78.64
20612;BME280;10465;42.686;23.364;2023-04-01T16:46:00;93827.63;;;12.08;78.39
20612;BME280;10465;42.686;23.364;2023-04-01T16:51:34;93834.78;;;11.80;77.42
20612;BME280;10465;42.686;23.364;2023-04-01T16:54:17;93828.91;;;11.86;75.67
20612;BME280;10465;42.686;23.364;2023-04-01T16:56:49;93826.81;;;11.80;75.91
20612;BME280;10465;42.686;23.364;2023-04-01T16:59:35;93829.56;;;11.96;75.45
20612;BME280;10465;42.686;23.364;2023-04-01T17:07:34;93835.47;;;12.05;73.48
20612;BME280;10465;42.686;23.364;2023-04-01T17:10:30;93836.44;;;11.84;73.50
20612;BME280;10465;42.686;23.364;2023-04-01T17:18:10;93853.22;;;11.76;73.38
20612;BME280;10465;42.686;23.364;2023-04-01T17:23:40;93845.91;;;11.45;73.86
20612;BME280;10465;42.686;23.364;2023-04-01T17:26:17;93868.34;;;11.11;74.76
20612;BME280;10465;42.686;23.364;2023-04-01T17:28:48;93860.59;;;10.94;75.00
20612;BME280;10465;42.686;23.364;2023-04-01T17:42:41;93858.06;;;11.34;74.01
20612;BME280;10465;42.686;23.364;2023-04-01T17:53:36;93906.72;;;11.42;73.67
20612;BME280;10465;42.686;23.364;2023-04-01T17:58:50;93913.03;;;11.37;74.73
20612;BME280;10465;42.686;23.364;2023-04-01T18:01:36;93902.66;;;11.20;74.02
20612;BME280;10465;42.686;23.364;2023-04-01T18:04:17;93925.09;;;11.22;74.48
20612;BME280;10465;42.686;23.364;2023-04-01T18:09:25;93946.72;;;11.24;75.16
20612;BME280;10465;42.686;23.364;2023-04-01T18:12:17;93938.66;;;11.21;75.23
20612;BME280;10465;42.686;23.364;2023-04-01T18:20:46;93931.00;;;10.82;73.65
20612;BME280;10465;42.686;23.364;2023-04-01T18:25:48;93938.41;;;11.01;73.13
20612;BME280;10465;42.686;23.364;2023-04-01T18:31:05;93940.41;;;11.04;72.53
20612;BME280;10465;42.686;23.364;2023-04-01T18:36:56;93951.88;;;11.21;72.84
20612;BME280;10465;42.686;23.364;2023-04-01T18:39:37;93944.44;;;10.77;73.34
20612;BME280;10465;42.686;23.364;2023-04-01T18:42:36;93929.75;;;10.68;73.56
20612;BME280;10465;42.686;23.364;2023-04-01T18:50:43;93960.03;;;11.03;72.72
20612;BME280;10465;42.686;23.364;2023-04-01T18:55:54;93967.66;;;11.29;72.25
20612;BME280;10465;42.686;23.364;2023-04-01T18:58:35;93976.63;;;11.37;71.77
20612;BME280;10465;42.686;23.364;2023-04-01T19:04:26;93975.84;;;11.36;71.14
20612;BME280;10465;42.686;23.364;2023-04-01T19:06:56;93991.63;;;11.45;71.21
20612;BME280;10465;42.686;23.364;2023-04-01T19:09:32;93988.00;;;11.50;69.95
20612;BME280;10465;42.686;23.364;2023-04-01T19:18:02;94002.59;;;11.68;68.77
20612;BME280;10465;42.686;23.364;2023-04-01T19:21:04;93995.63;;;11.76;68.34
20612;BME280;10465;42.686;23.364;2023-04-01T19:23:45;93995.16;;;11.74;68.62
20612;BME280;10465;42.686;23.364;2023-04-01T19:26:22;93971.66;;;11.48;68.56
20612;BME280;10465;42.686;23.364;2023-04-01T19:28:54;94004.34;;;11.64;68.17
20612;BME280;10465;42.686;23.364;2023-04-01T19:34:22;94017.50;;;11.60;67.35
20612;BME280;10465;42.686;23.364;2023-04-01T19:36:57;94012.53;;;11.59;66.85
20612;BME280;10465;42.686;23.364;2023-04-01T19:42:25;94026.22;;;11.73;65.47
20612;BME280;10465;42.686;23.364;2023-04-01T19:47:50;94036.06;;;11.73;64.89
20612;BME280;10465;42.686;23.364;2023-04-01T19:52:58;93993.69;;;11.03;66.30
20612;BME280;10465;42.686;23.364;2023-04-01T20:00:53;94009.84;;;11.22;64.85
20612;BME280;10465;42.686;23.364;2023-04-01T20:03:42;94015.25;;;11.38;64.85
20612;BME280;10465;42.686;23.364;2023-04-01T20:11:53;94034.59;;;11.38;64.76
20612;BME280;10465;42.686;23.364;2023-04-01T20:14:32;94035.69;;;11.37;64.26
20612;BME280;10465;42.686;23.364;2023-04-01T20:17:30;94046.88;;;11.55;64.32
20612;BME280;10465;42.686;23.364;2023-04-01T20:20:18;94042.00;;;11.57;64.13
20612;BME280;10465;42.686;23.364;2023-04-01T20:28:14;94049.72;;;11.75;64.02
20612;BME280;10465;42.686;23.364;2023-04-01T20:30:55;94047.19;;;11.78;63.87
20612;BME280;10465;42.686;23.364;2023-04-01T20:33:41;94037.03;;;11.68;64.26
20612;BME280;10465;42.686;23.364;2023-04-01T20:39:57;94061.78;;;11.72;63.63
20612;BME280;10465;42.686;23.364;2023-04-01T20:50:29;94065.84;;;11.57;60.36
20612;BME280;10465;42.686;23.364;2023-04-01T20:53:16;94066.31;;;11.59;60.70
20612;BME280;10465;42.686;23.364;2023-04-01T20:56:29;94069.63;;;11.56;60.74
20612;BME280;10465;42.686;23.364;2023-04-01T21:02:34;94067.72;;;11.57;60.21
20612;BME280;10465;42.686;23.364;2023-04-01T21:08:20;94076.91;;;11.59;60.11
20612;BME280;10465;42.686;23.364;2023-04-01T21:11:08;94064.41;;;11.48;60.06
20612;BME280;10465;42.686;23.364;2023-04-01T21:22:41;94089.59;;;11.66;60.25
20612;BME280;10465;42.686;23.364;2023-04-01T21:25:27;94088.84;;;11.66;60.23
20612;BME280;10465;42.686;23.364;2023-04-01T21:50:14;94086.91;;;11.42;60.54
20612;BME280;10465;42.686;23.364;2023-04-01T21:53:09;94090.91;;;11.48;60.75
20612;BME280;10465;42.686;23.364;2023-04-01T22:01:18;94077.78;;;11.39;60.72
20612;BME280;10465;42.686;23.364;2023-04-01T22:12:04;94078.91;;;11.17;61.99
20612;BME280;10465;42.686;23.364;2023-04-01T22:17:08;94060.03;;;11.06;61.51
20612;BME280;10465;42.686;23.364;2023-04-01T22:28:37;94064.81;;;11.25;60.80
20612;BME280;10465;42.686;23.364;2023-04-01T22:31:02;94070.69;;;11.31;60.96
20612;BME280;10465;42.686;23.364;2023-04-01T22:33:36;94076.84;;;11.23;61.04
20612;BME280;10465;42.686;23.364;2023-04-01T22:39:40;94072.75;;;11.25;60.64
20612;BME280;10465;42.686;23.364;2023-04-01T22:47:37;94060.72;;;11.16;59.34
20612;BME280;10465;42.686;23.364;2023-04-01T22:50:19;94080.28;;;11.23;60.38
20612;BME280;10465;42.686;23.364;2023-04-01T22:52:47;94085.09;;;11.21;59.97
20612;BME280;10465;42.686;23.364;2023-04-01T22:55:25;94055.03;;;11.05;59.81
20612;BME280;10465;42.686;23.364;2023-04-01T22:58:05;94092.31;;;11.33;58.75
20612;BME280;10465;42.686;23.364;2023-04-01T23:00:36;94099.84;;;11.31;59.08
20612;BME280;10465;42.686;23.364;2023-04-01T23:03:20;94096.41;;;11.30;58.41
20612;BME280;10465;42.686;23.364;2023-04-01T23:05:53;94087.44;;;11.23;58.22